createdAt,value
2023-05-19T00:00:19.941Z,14.88
2023-05-19T00:02:46.901Z,14.84
2023-05-19T00:05:15.286Z,14.82
2023-05-19T00:07:43.918Z,14.88
2023-05-19T00:10:11.319Z,14.81
2023-05-19T00:12:38.827Z,14.87
2023-05-19T00:15:06.344Z,14.83
2023-05-19T00:17:34.564Z,14.85
2023-05-19T00:20:01.556Z,14.82
2023-05-19T00:22:28.327Z,14.82
2023-05-19T00:24:55.011Z,14.81
2023-05-19T00:27:21.650Z,14.76
2023-05-19T00:29:48.309Z,14.84
2023-05-19T00:32:15.807Z,14.84
2023-05-19T00:34:42.762Z,14.79
2023-05-19T00:37:09.500Z,14.70
2023-05-19T00:39:36.176Z,14.66
2023-05-19T00:42:02.932Z,14.69
2023-05-19T00:44:29.578Z,14.64
2023-05-19T00:46:56.278Z,14.59
2023-05-19T00:49:22.969Z,14.57
2023-05-19T00:51:50.104Z,14.60
2023-05-19T00:54:16.876Z,14.58
2023-05-19T00:56:43.616Z,14.50
2023-05-19T00:59:10.348Z,14.57
2023-05-19T01:01:37.422Z,14.48
2023-05-19T01:04:05.414Z,14.42
2023-05-19T01:06:32.524Z,14.44
2023-05-19T01:08:59.278Z,14.37
2023-05-19T01:11:26.044Z,14.35
2023-05-19T01:13:52.568Z,14.37
2023-05-19T01:16:30.810Z,14.25
2023-05-19T01:19:10.971Z,14.20
2023-05-19T01:21:48.911Z,14.19
2023-05-19T01:24:39.182Z,14.17
2023-05-19T01:27:15.126Z,14.18
2023-05-19T01:30:19.027Z,14.08
2023-05-19T01:32:48.104Z,13.98
2023-05-19T01:35:17.032Z,13.95
2023-05-19T01:37:45.367Z,13.99
2023-05-19T01:40:12.892Z,14.04
2023-05-19T01:42:41.034Z,14.01
2023-05-19T01:45:11.224Z,14.02
2023-05-19T01:47:41.957Z,14.08
2023-05-19T01:50:08.755Z,14.02
2023-05-19T01:52:35.417Z,13.98
2023-05-19T01:55:02.179Z,13.94
2023-05-19T01:58:00.739Z,13.88
2023-05-19T02:00:58.264Z,13.84
2023-05-19T02:03:24.954Z,13.73
2023-05-19T02:06:06.720Z,13.69
2023-05-19T02:09:04.214Z,13.71
2023-05-19T02:11:53.225Z,13.70
2023-05-19T02:14:30.612Z,13.65
2023-05-19T02:16:58.050Z,13.63
2023-05-19T02:19:25.808Z,13.68
2023-05-19T02:21:52.501Z,13.74
2023-05-19T02:24:20.216Z,13.71
2023-05-19T02:26:46.847Z,13.77
2023-05-19T02:29:13.521Z,13.78
2023-05-19T02:31:40.292Z,13.83
2023-05-19T02:34:08.654Z,13.84
2023-05-19T02:36:38.953Z,13.90
2023-05-19T02:39:05.594Z,13.97
2023-05-19T02:41:32.352Z,14.03
2023-05-19T02:43:58.974Z,14.09
2023-05-19T02:46:25.814Z,14.11
2023-05-19T02:48:55.047Z,14.13
2023-05-19T02:51:21.700Z,14.19
2023-05-19T02:53:48.351Z,14.28
2023-05-19T02:56:15.024Z,14.28
2023-05-19T02:58:43.181Z,14.28
2023-05-19T03:01:10.211Z,14.32
2023-05-19T03:03:36.972Z,14.29
2023-05-19T03:06:03.902Z,14.30
2023-05-19T03:08:30.654Z,14.34
2023-05-19T03:10:57.365Z,14.36
2023-05-19T03:13:24.046Z,14.40
2023-05-19T03:15:51.276Z,14.41
2023-05-19T03:18:18.394Z,14.40
2023-05-19T03:20:45.119Z,14.46
2023-05-19T03:23:12.101Z,14.51
2023-05-19T03:25:38.775Z,14.51
2023-05-19T03:28:05.591Z,14.57
2023-05-19T03:30:32.569Z,14.60
2023-05-19T03:33:01.778Z,14.60
2023-05-19T03:35:28.797Z,14.69
2023-05-19T03:37:55.529Z,14.66
2023-05-19T03:40:22.237Z,14.72
2023-05-19T03:42:48.900Z,14.72
2023-05-19T03:45:15.669Z,14.75
2023-05-19T03:47:42.435Z,14.69
2023-05-19T03:50:09.984Z,14.72
2023-05-19T03:52:36.647Z,14.69
2023-05-19T03:55:03.388Z,14.73
2023-05-19T03:57:30.049Z,14.77
2023-05-19T03:59:56.735Z,14.81
2023-05-19T04:02:23.461Z,14.80
2023-05-19T04:04:51.238Z,14.83
2023-05-19T04:07:18.054Z,14.88
2023-05-19T04:09:45.170Z,14.89
2023-05-19T04:12:11.901Z,14.93
2023-05-19T04:14:38.589Z,14.96
2023-05-19T04:17:05.531Z,15.04
2023-05-19T04:19:32.230Z,15.12
2023-05-19T04:21:59.013Z,15.05
2023-05-19T04:24:25.742Z,15.11
2023-05-19T04:26:54.822Z,15.16
2023-05-19T04:29:23.490Z,15.18
2023-05-19T04:31:50.271Z,15.23
2023-05-19T04:34:19.902Z,15.27
2023-05-19T04:36:46.896Z,15.36
2023-05-19T04:39:14.509Z,15.37
2023-05-19T04:41:42.101Z,15.44
2023-05-19T04:44:15.964Z,15.48
2023-05-19T04:46:42.914Z,15.51
2023-05-19T04:49:12.610Z,15.50
2023-05-19T04:51:41.439Z,15.60
2023-05-19T04:54:08.816Z,15.69
2023-05-19T04:56:36.012Z,15.79
2023-05-19T04:59:02.633Z,15.93
2023-05-19T05:01:31.378Z,16.10
2023-05-19T05:03:59.284Z,16.31
2023-05-19T05:06:26.649Z,16.41
2023-05-19T05:08:53.385Z,16.34
2023-05-19T05:11:20.702Z,16.37
2023-05-19T05:13:47.722Z,16.26
2023-05-19T05:16:15.071Z,16.30
2023-05-19T05:18:44.943Z,16.52
2023-05-19T05:21:12.390Z,16.86
2023-05-19T05:23:39.591Z,17.18
2023-05-19T05:26:11.582Z,17.18
2023-05-19T05:28:38.270Z,17.62
2023-05-19T05:31:05.002Z,17.81
2023-05-19T05:33:31.971Z,17.71
2023-05-19T05:35:58.686Z,17.58
2023-05-19T05:38:25.536Z,17.39
2023-05-19T05:40:52.273Z,17.01
2023-05-19T05:43:18.918Z,16.66
2023-05-19T05:45:45.643Z,16.66
2023-05-19T05:48:12.776Z,16.67
2023-05-19T05:50:39.842Z,16.56
2023-05-19T05:53:07.779Z,16.70
2023-05-19T05:55:35.080Z,16.83
2023-05-19T05:58:02.421Z,16.90
2023-05-19T06:00:29.993Z,17.15
2023-05-19T06:02:57.367Z,17.18
2023-05-19T06:05:25.221Z,17.27
2023-05-19T06:07:52.021Z,17.20
2023-05-19T06:10:18.756Z,17.22
2023-05-19T06:12:45.500Z,17.31
2023-05-19T06:15:12.299Z,17.53
2023-05-19T06:17:39.034Z,17.67
2023-05-19T06:20:06.722Z,17.75
2023-05-19T06:22:33.391Z,17.80
2023-05-19T06:25:00.172Z,17.75
2023-05-19T06:27:26.899Z,17.75
2023-05-19T06:29:53.874Z,17.75
2023-05-19T06:32:20.988Z,17.71
2023-05-19T06:34:54.091Z,17.75
2023-05-19T06:37:23.000Z,17.70
2023-05-19T06:39:52.438Z,17.62
2023-05-19T06:42:23.135Z,17.76
2023-05-19T06:44:51.421Z,17.77
2023-05-19T06:47:19.210Z,18.01
2023-05-19T06:49:46.825Z,18.16
2023-05-19T06:52:13.628Z,18.26
2023-05-19T06:54:40.180Z,18.42
2023-05-19T06:57:07.025Z,18.47
2023-05-19T06:59:33.873Z,18.63
2023-05-19T07:02:02.487Z,18.69
2023-05-19T07:04:29.220Z,19.10
2023-05-19T07:06:55.879Z,18.98
2023-05-19T07:09:22.631Z,19.11
2023-05-19T07:11:49.632Z,19.42
2023-05-19T07:14:16.288Z,19.24
2023-05-19T07:16:43.239Z,19.32
2023-05-19T07:19:10.030Z,19.40
2023-05-19T07:21:44.710Z,19.32
2023-05-19T07:24:14.592Z,19.31
2023-05-19T07:26:42.688Z,19.40
2023-05-19T07:29:09.623Z,19.80
2023-05-19T07:31:36.428Z,19.94
2023-05-19T07:34:03.719Z,20.13
2023-05-19T07:36:31.464Z,20.03
2023-05-19T07:38:58.190Z,20.07
2023-05-19T07:41:24.804Z,20.03
2023-05-19T07:43:51.562Z,19.77
2023-05-19T07:46:18.435Z,19.59
2023-05-19T07:48:45.111Z,19.46
2023-05-19T07:51:15.905Z,19.52
2023-05-19T07:53:42.589Z,19.48
2023-05-19T07:56:09.242Z,19.45
2023-05-19T07:58:36.056Z,19.51
2023-05-19T08:01:02.769Z,19.57
2023-05-19T08:03:30.769Z,19.76
2023-05-19T08:05:57.743Z,19.71
2023-05-19T08:08:24.622Z,19.63
2023-05-19T08:10:51.527Z,19.61
2023-05-19T08:13:18.229Z,19.56
2023-05-19T08:15:44.904Z,19.61
2023-05-19T08:18:11.746Z,19.78
2023-05-19T08:20:38.411Z,19.77
2023-05-19T08:23:05.455Z,19.74
2023-05-19T08:25:32.191Z,19.67
2023-05-19T08:27:58.824Z,19.69
2023-05-19T08:30:25.515Z,19.73
2023-05-19T08:32:52.241Z,19.82
2023-05-19T08:35:19.010Z,19.88
2023-05-19T08:37:46.012Z,19.89
2023-05-19T08:40:17.770Z,19.80
2023-05-19T08:42:47.914Z,19.80
2023-05-19T08:45:15.111Z,20.07
2023-05-19T08:47:43.117Z,20.24
2023-05-19T08:50:13.471Z,20.23
2023-05-19T08:52:52.469Z,20.41
2023-05-19T08:55:34.031Z,20.91
2023-05-19T08:58:04.995Z,21.44
2023-05-19T09:00:33.177Z,21.51
2023-05-19T09:05:33.582Z,21.69
2023-05-19T09:08:02.740Z,21.73
2023-05-19T09:10:29.633Z,21.78
2023-05-19T09:12:56.471Z,22.01
2023-05-19T09:15:27.249Z,22.01
2023-05-19T09:18:08.955Z,22.06
2023-05-19T09:20:43.891Z,22.09
2023-05-19T09:23:17.438Z,22.11
2023-05-19T09:25:48.650Z,22.32
2023-05-19T09:28:22.990Z,22.41
2023-05-19T09:30:49.621Z,22.58
2023-05-19T09:33:22.547Z,22.42
2023-05-19T09:35:49.282Z,22.62
2023-05-19T09:38:19.553Z,22.68
2023-05-19T09:40:52.051Z,22.61
2023-05-19T09:43:18.682Z,22.53
2023-05-19T09:45:45.370Z,22.61
2023-05-19T09:48:12.708Z,22.63
2023-05-19T09:50:39.441Z,22.78
2023-05-19T09:53:06.849Z,22.84
2023-05-19T09:55:34.822Z,23.24
2023-05-19T09:58:04.329Z,23.02
2023-05-19T10:00:32.983Z,23.04
2023-05-19T10:03:00.539Z,22.74
2023-05-19T10:05:28.723Z,23.09
2023-05-19T10:07:55.904Z,23.21
2023-05-19T10:10:23.085Z,22.91
2023-05-19T10:12:50.200Z,22.81
2023-05-19T10:15:19.215Z,23.09
2023-05-19T10:17:46.785Z,23.11
2023-05-19T10:20:19.018Z,23.22
2023-05-19T10:22:46.632Z,23.01
2023-05-19T10:25:18.703Z,22.92
2023-05-19T10:28:08.903Z,22.99
2023-05-19T10:30:42.002Z,22.96
2023-05-19T10:33:14.785Z,23.12
2023-05-19T10:36:09.230Z,22.61
2023-05-19T10:38:43.112Z,22.61
2023-05-19T10:41:19.777Z,22.91
2023-05-19T10:43:58.842Z,23.32
2023-05-19T10:46:29.923Z,23.34
2023-05-19T10:48:56.632Z,23.06
2023-05-19T10:51:33.426Z,23.25
2023-05-19T10:54:11.543Z,23.21
2023-05-19T10:56:42.542Z,23.27
2023-05-19T10:59:37.188Z,23.36
2023-05-19T11:02:08.754Z,23.38
2023-05-19T11:04:58.653Z,23.40
2023-05-19T11:07:25.625Z,23.45
2023-05-19T11:09:52.882Z,23.68
2023-05-19T11:12:24.754Z,23.69
2023-05-19T11:14:55.593Z,23.66
2023-05-19T11:17:25.612Z,23.68
2023-05-19T11:19:54.997Z,23.59
2023-05-19T11:22:28.558Z,23.83
2023-05-19T11:24:55.937Z,23.94
2023-05-19T11:27:33.515Z,23.81
2023-05-19T11:30:13.297Z,23.97
2023-05-19T11:32:42.554Z,23.76
2023-05-19T11:35:10.269Z,23.92
2023-05-19T11:37:37.300Z,24.06
2023-05-19T11:40:07.866Z,24.16
2023-05-19T11:42:36.190Z,24.38
2023-05-19T11:45:04.342Z,24.56
2023-05-19T11:47:42.004Z,24.54
2023-05-19T11:50:14.318Z,24.63
2023-05-19T11:52:45.150Z,24.66
2023-05-19T11:55:16.576Z,24.85
2023-05-19T11:58:04.937Z,24.76
2023-05-19T12:00:39.430Z,24.64
2023-05-19T12:03:07.638Z,25.37
2023-05-19T12:05:42.070Z,25.08
2023-05-19T12:08:11.023Z,24.63
2023-05-19T12:10:38.828Z,24.96
2023-05-19T12:13:09.003Z,24.64
2023-05-19T12:15:36.559Z,24.72
2023-05-19T12:18:03.999Z,24.53
2023-05-19T12:20:32.661Z,24.50
2023-05-19T12:23:10.360Z,25.23
2023-05-19T12:25:38.506Z,25.26
2023-05-19T12:28:05.629Z,25.81
2023-05-19T12:30:33.796Z,-144.75
2023-05-19T12:33:02.387Z,-144.75
2023-05-19T12:35:34.222Z,-144.75
2023-05-19T12:38:07.195Z,-144.75
2023-05-19T12:40:40.507Z,-144.75
2023-05-19T12:43:07.908Z,-144.75
2023-05-19T12:45:36.228Z,-144.75
2023-05-19T12:48:05.624Z,-144.75
2023-05-19T12:50:34.381Z,-144.75
2023-05-19T12:53:01.611Z,-144.75
2023-05-19T12:55:30.085Z,-144.75
2023-05-19T12:57:58.321Z,-144.75
2023-05-19T13:00:28.667Z,-144.75
2023-05-19T13:03:06.626Z,-144.75
2023-05-19T13:05:38.073Z,-144.75
2023-05-19T13:08:07.740Z,-144.75
2023-05-19T13:10:35.889Z,-144.75
2023-05-19T13:13:03.562Z,-144.75
2023-05-19T13:15:34.623Z,-144.75
2023-05-19T13:18:12.374Z,-144.75
2023-05-19T13:20:40.712Z,-144.75
2023-05-19T13:23:07.873Z,-144.75
2023-05-19T13:25:34.748Z,-144.75
2023-05-19T13:28:08.089Z,-144.75
2023-05-19T13:30:37.049Z,-144.75
2023-05-19T13:33:07.208Z,-144.75
2023-05-19T13:35:37.914Z,-144.75
2023-05-19T13:38:06.183Z,-144.75
2023-05-19T13:40:34.980Z,-144.75
2023-05-19T13:43:03.062Z,-144.75
2023-05-19T13:45:29.892Z,-144.75
2023-05-19T13:47:57.066Z,-144.75
2023-05-19T13:50:23.893Z,-144.75
2023-05-19T13:52:50.677Z,-144.75
2023-05-19T13:55:17.788Z,-144.75
2023-05-19T13:57:44.935Z,-144.75
2023-05-19T14:00:11.972Z,-144.75
2023-05-19T14:02:39.325Z,-144.75
2023-05-19T14:05:07.422Z,-144.75
2023-05-19T14:07:35.203Z,-144.75
2023-05-19T14:10:03.173Z,-144.75
2023-05-19T14:12:37.972Z,-144.75
2023-05-19T14:15:11.558Z,-144.75
2023-05-19T14:17:41.682Z,-144.75
2023-05-19T14:20:09.647Z,-144.75
2023-05-19T14:22:36.448Z,-144.75
2023-05-19T14:25:03.767Z,-144.75
2023-05-19T14:27:30.456Z,-144.75
2023-05-19T14:29:57.254Z,-144.75
2023-05-19T14:32:24.454Z,-144.75
2023-05-19T14:34:56.596Z,-144.75
2023-05-19T14:37:23.305Z,-144.75
2023-05-19T14:39:49.972Z,-144.75
2023-05-19T14:42:16.609Z,-144.75
2023-05-19T14:44:43.262Z,-144.75
2023-05-19T14:47:11.447Z,-144.75
2023-05-19T14:49:38.407Z,-144.75
2023-05-19T14:52:05.282Z,-144.75
2023-05-19T14:54:31.995Z,-144.75
2023-05-19T14:56:58.682Z,-144.75
2023-05-19T14:59:25.574Z,-144.75
2023-05-19T15:01:52.279Z,-144.75
2023-05-19T15:04:19.158Z,-144.75
2023-05-19T15:06:48.237Z,-144.75
2023-05-19T15:09:19.136Z,-144.75
2023-05-19T15:11:53.061Z,-144.75
2023-05-19T15:14:19.801Z,-144.75
2023-05-19T15:16:46.568Z,-144.75
2023-05-19T15:19:13.230Z,-144.75
2023-05-19T15:21:40.028Z,-144.75
2023-05-19T15:24:07.151Z,-144.75
2023-05-19T15:26:36.785Z,-144.75
2023-05-19T15:29:03.756Z,-144.75
2023-05-19T15:31:30.788Z,-144.75
2023-05-19T15:33:59.958Z,-144.75
2023-05-19T15:36:32.116Z,-144.75
2023-05-19T15:38:58.772Z,-144.75
2023-05-19T15:41:25.845Z,-144.75
2023-05-19T15:43:53.668Z,-144.75
2023-05-19T15:46:20.582Z,-144.75
2023-05-19T15:48:47.458Z,-144.75
2023-05-19T15:51:14.341Z,-144.75
2023-05-19T15:53:41.160Z,-144.75
2023-05-19T15:56:07.946Z,-144.75
2023-05-19T15:58:34.597Z,-144.75
2023-05-19T16:01:01.449Z,-144.75
2023-05-19T16:03:28.488Z,-144.75
2023-05-19T16:05:55.493Z,-144.75
2023-05-19T16:08:22.450Z,-144.75
2023-05-19T16:10:49.248Z,-144.75
2023-05-19T16:13:15.908Z,-144.75
2023-05-19T16:15:45.247Z,-144.75
2023-05-19T16:18:12.021Z,-144.75
2023-05-19T16:20:38.965Z,-144.75
2023-05-19T16:23:05.690Z,-144.75
2023-05-19T16:25:32.848Z,-144.75
2023-05-19T16:27:59.768Z,-144.75
2023-05-19T16:30:28.045Z,-144.75
2023-05-19T16:32:54.881Z,-144.75
2023-05-19T16:35:24.642Z,-144.75
2023-05-19T16:37:51.422Z,-144.75
2023-05-19T16:40:18.481Z,-144.75
2023-05-19T16:42:45.342Z,-144.75
2023-05-19T16:45:12.132Z,-144.75
2023-05-19T16:47:40.220Z,-144.75
2023-05-19T16:50:10.044Z,-144.75
2023-05-19T16:52:37.123Z,-144.75
2023-05-19T16:55:04.026Z,-144.75
2023-05-19T16:57:32.234Z,-144.75
2023-05-19T16:59:58.941Z,-144.75
2023-05-19T17:02:25.958Z,-144.75
2023-05-19T17:04:56.091Z,-144.75
2023-05-19T17:07:22.738Z,-144.75
2023-05-19T17:09:49.384Z,-144.75
2023-05-19T17:12:16.013Z,-144.75
2023-05-19T17:14:45.155Z,-144.75
2023-05-19T17:17:12.003Z,-144.75
2023-05-19T17:19:41.048Z,-144.75
2023-05-19T17:22:07.717Z,-144.75
2023-05-19T17:24:35.594Z,-144.75
2023-05-19T17:27:05.380Z,-144.75
2023-05-19T17:29:31.961Z,-144.75
2023-05-19T17:31:58.730Z,-144.75
2023-05-19T17:34:25.452Z,-144.75
2023-05-19T17:36:52.079Z,-144.75
2023-05-19T17:39:20.230Z,-144.75
2023-05-19T17:41:46.935Z,-144.75
2023-05-19T17:44:13.632Z,-144.75
2023-05-19T17:46:40.320Z,-144.75
2023-05-19T17:49:07.388Z,-144.75
2023-05-19T17:51:34.352Z,-144.75
2023-05-19T17:54:01.387Z,-144.75
2023-05-19T17:56:33.116Z,-144.75
2023-05-19T17:59:00.245Z,-144.75
2023-05-19T18:01:27.207Z,-144.75
2023-05-19T18:03:54.387Z,-144.75
2023-05-19T18:06:21.754Z,-144.75
2023-05-19T18:08:50.681Z,-144.75
2023-05-19T18:11:18.490Z,-144.75
2023-05-19T18:13:45.200Z,-144.75
2023-05-19T18:16:12.890Z,-144.75
2023-05-19T18:18:43.524Z,-144.75
2023-05-19T18:21:17.676Z,-144.75
2023-05-19T18:23:45.454Z,-144.75
2023-05-19T18:26:15.897Z,-144.75
2023-05-19T18:28:43.418Z,-144.75
2023-05-19T18:31:15.720Z,-144.75
2023-05-19T18:33:43.713Z,-144.75
2023-05-19T18:36:10.572Z,-144.75
2023-05-19T18:38:37.158Z,-144.75
2023-05-19T18:41:06.878Z,-144.75
2023-05-19T18:43:34.460Z,-144.75
2023-05-19T18:46:01.380Z,-144.75
2023-05-19T18:48:28.174Z,-144.75
2023-05-19T18:50:54.844Z,-144.75
2023-05-19T18:53:22.699Z,-144.75
2023-05-19T18:55:49.407Z,-144.75
2023-05-19T18:58:18.480Z,-144.75
2023-05-19T19:00:45.181Z,-144.75
2023-05-19T19:03:12.062Z,-144.75
2023-05-19T19:07:59.158Z,16.76
2023-05-19T19:10:26.000Z,16.80
2023-05-19T19:12:52.662Z,16.83
2023-05-19T19:15:19.348Z,16.76
2023-05-19T19:17:46.380Z,16.62
2023-05-19T19:20:13.367Z,16.57
2023-05-19T19:22:40.073Z,16.51
2023-05-19T19:25:07.064Z,16.31
2023-05-19T19:27:35.720Z,16.10
2023-05-19T19:30:02.604Z,16.14
2023-05-19T19:32:32.651Z,16.05
2023-05-19T19:34:59.381Z,16.17
2023-05-19T19:37:26.103Z,16.08
2023-05-19T19:39:52.789Z,16.00
2023-05-19T19:42:19.659Z,15.90
2023-05-19T19:44:46.298Z,15.82
2023-05-19T19:47:12.946Z,15.92
2023-05-19T19:49:39.664Z,15.80
2023-05-19T19:52:06.404Z,15.79
2023-05-19T19:54:33.147Z,15.85
2023-05-19T19:56:59.853Z,15.74
2023-05-19T19:59:27.005Z,15.73
2023-05-19T20:01:53.756Z,15.69
2023-05-19T20:04:20.728Z,15.69
2023-05-19T20:06:47.594Z,15.65
2023-05-19T20:09:14.314Z,15.68
2023-05-19T20:11:40.870Z,15.58
2023-05-19T20:14:07.548Z,15.46
2023-05-19T20:16:34.295Z,15.32
2023-05-19T20:19:01.614Z,15.22
2023-05-19T20:21:28.447Z,15.27
2023-05-19T20:23:55.122Z,15.14
2023-05-19T20:26:22.535Z,15.00
2023-05-19T20:28:49.231Z,15.09
2023-05-19T20:31:15.940Z,15.00
2023-05-19T20:33:42.658Z,15.07
2023-05-19T20:36:10.945Z,15.14
2023-05-19T20:38:37.728Z,15.11
2023-05-19T20:41:04.609Z,15.05
2023-05-19T20:43:32.466Z,15.14
2023-05-19T20:45:59.922Z,14.91
2023-05-19T20:48:26.805Z,14.98
2023-05-19T20:50:54.479Z,15.01
2023-05-19T20:53:21.887Z,14.98
2023-05-19T20:55:48.616Z,14.92
2023-05-19T20:58:15.548Z,14.89
2023-05-19T21:00:42.237Z,14.81
2023-05-19T21:03:09.097Z,14.76
2023-05-19T21:05:36.486Z,14.76
2023-05-19T21:08:03.348Z,14.76
2023-05-19T21:10:29.997Z,14.75
2023-05-19T21:12:58.844Z,14.79
2023-05-19T21:15:27.005Z,14.82
2023-05-19T21:17:53.872Z,14.60
2023-05-19T21:20:20.661Z,14.46
2023-05-19T21:22:47.321Z,14.57
2023-05-19T21:25:14.053Z,14.55
2023-05-19T21:27:40.682Z,14.59
2023-05-19T21:30:08.055Z,14.68
2023-05-19T21:32:34.816Z,14.69
2023-05-19T21:35:01.626Z,14.79
2023-05-19T21:37:28.292Z,14.91
2023-05-19T21:39:54.925Z,14.86
2023-05-19T21:42:21.642Z,14.72
2023-05-19T21:44:48.335Z,14.60
2023-05-19T21:47:15.074Z,14.67
2023-05-19T21:49:41.804Z,14.74
2023-05-19T21:52:08.906Z,14.74
2023-05-19T21:54:36.202Z,14.55
2023-05-19T21:57:02.948Z,14.66
2023-05-19T21:59:29.667Z,14.62
2023-05-19T22:01:56.467Z,14.67
2023-05-19T22:04:23.204Z,14.57
2023-05-19T22:06:49.864Z,14.54
2023-05-19T22:09:16.735Z,14.62
2023-05-19T22:11:43.425Z,14.64
2023-05-19T22:14:10.034Z,14.57
2023-05-19T22:16:36.742Z,14.29
2023-05-19T22:19:03.592Z,14.17
2023-05-19T22:21:31.240Z,14.28
2023-05-19T22:23:57.912Z,14.44
2023-05-19T22:26:24.621Z,14.25
2023-05-19T22:28:51.447Z,14.16
2023-05-19T22:31:18.134Z,14.28
2023-05-19T22:33:45.002Z,14.13
2023-05-19T22:36:11.685Z,14.05
2023-05-19T22:38:38.388Z,14.13
2023-05-19T22:41:05.263Z,13.99
2023-05-19T22:43:31.902Z,13.93
2023-05-19T22:45:58.581Z,13.92
2023-05-19T22:48:25.524Z,13.91
2023-05-19T22:50:52.355Z,14.06
2023-05-19T22:53:18.976Z,13.99
2023-05-19T22:55:45.686Z,13.92
2023-05-19T22:58:12.375Z,13.85
2023-05-19T23:00:39.059Z,13.82
2023-05-19T23:03:05.805Z,13.77
2023-05-19T23:05:32.637Z,13.74
2023-05-19T23:07:59.407Z,13.85
2023-05-19T23:10:26.135Z,13.90
2023-05-19T23:12:52.846Z,13.98
2023-05-19T23:15:19.480Z,13.96
2023-05-19T23:17:46.104Z,13.79
2023-05-19T23:20:13.495Z,13.84
2023-05-19T23:22:40.161Z,13.93
2023-05-19T23:25:07.944Z,13.98
2023-05-19T23:27:35.812Z,14.03
2023-05-19T23:30:02.891Z,13.86
2023-05-19T23:32:29.686Z,13.98
2023-05-19T23:34:56.399Z,14.07
2023-05-19T23:37:23.064Z,14.11
2023-05-19T23:39:49.753Z,14.14
2023-05-19T23:42:16.380Z,14.21
2023-05-19T23:44:42.951Z,14.06
2023-05-19T23:47:09.805Z,13.89
2023-05-19T23:49:36.633Z,13.88
2023-05-19T23:52:03.394Z,13.89
2023-05-19T23:54:30.691Z,13.92
2023-05-19T23:56:58.457Z,14.00
2023-05-19T23:59:25.403Z,13.87
